Time;durP1;ratioP1;P1;durP2;ratioP2;P2;SDS_P1;SDS_P2;PMS_P1;PMS_P2;Temp;Humidity;BMP_temperature;BMP_pressure;BME280_temperature;BME280_humidity;BME280_pressure;Samples;Min_cycle;Max_cycle;Signal;HPM_P1;HPM_P2
2023/06/25 00:01:20;;;;;;;0.93;0.93;;;;;;;;;;5031384;28;20395;-44
2023/06/25 00:03:47;;;;;;;1.00;0.90;;;;;;;;;;5031455;28;20116;-45
2023/06/25 00:06:14;;;;;;;1.00;0.90;;;;;;;;;;5031325;28;20034;-44
2023/06/25 00:08:41;;;;;;;1.05;0.90;;;;;;;;;;5030112;28;20738;-45
2023/06/25 00:11:08;;;;;;;1.13;0.90;;;;;;;;;;5031363;28;20033;-44
2023/06/25 00:13:36;;;;;;;1.00;0.88;;;;;;;;;;5031312;28;20059;-44
2023/06/25 00:16:03;;;;;;;1.67;1.13;;;;;;;;;;5031201;28;20029;-45
2023/06/25 00:18:33;;;;;;;1.15;1.05;;;;;;;;;;5031318;28;20030;-44
2023/06/25 00:21:00;;;;;;;0.90;0.85;;;;;;;;;;5031059;28;20052;-44
2023/06/25 00:23:27;;;;;;;1.02;0.85;;;;;;;;;;5031250;28;20064;-46
2023/06/25 00:25:54;;;;;;;1.75;1.08;;;;;;;;;;5031180;28;20029;-45
2023/06/25 00:28:21;;;;;;;1.33;0.90;;;;;;;;;;5031248;28;20053;-44
2023/06/25 00:30:48;;;;;;;1.10;0.90;;;;;;;;;;5031779;28;20037;-45
2023/06/25 00:33:15;;;;;;;1.50;0.95;;;;;;;;;;5034972;28;20037;-44
2023/06/25 00:35:51;;;;;;;1.17;0.77;;;;;;;;;;5034882;28;20483;-44
2023/06/25 00:38:22;;;;;;;1.83;1.00;;;;;;;;;;5034815;28;20051;-45
2023/06/25 00:40:49;;;;;;;1.30;1.00;;;;;;;;;;5034681;28;20033;-44
2023/06/25 00:43:16;;;;;;;1.88;1.20;;;;;;;;;;5034762;28;20491;-44
2023/06/25 00:45:46;;;;;;;1.17;1.05;;;;;;;;;;5034349;28;20596;-44
2023/06/25 00:48:13;;;;;;;1.42;1.00;;;;;;;;;;5034597;28;20041;-45
2023/06/25 00:50:40;;;;;;;1.15;1.00;;;;;;;;;;5034602;28;20052;-44
2023/06/25 00:53:09;;;;;;;1.58;1.10;;;;;;;;;;5034523;28;20400;-45
2023/06/25 00:55:36;;;;;;;3.00;1.10;;;;;;;;;;5034466;28;20029;-45
2023/06/25 00:58:03;;;;;;;1.05;0.90;;;;;;;;;;5034485;28;20098;-44
2023/06/25 01:00:33;;;;;;;1.25;0.90;;;;;;;;;;5034272;28;20030;-44
2023/06/25 01:03:03;;;;;;;1.65;1.00;;;;;;;;;;5034280;28;20061;-44
2023/06/25 01:06:09;;;;;;;1.20;1.00;;;;;;;;;;5034202;28;20044;-44
2023/06/25 01:08:37;;;;;;;1.33;0.90;;;;;;;;;;4973000;28;20397;-44
2023/06/25 01:11:05;;;;;;;1.65;1.15;;;;;;;;;;4973124;28;20476;-44
2023/06/25 01:13:32;;;;;;;1.27;1.02;;;;;;;;;;5003686;28;20064;-45
2023/06/25 01:15:59;;;;;;;1.00;0.90;;;;;;;;;;5034132;28;20025;-45
2023/06/25 01:18:26;;;;;;;1.60;0.90;;;;;;;;;;5034130;28;20112;-45
2023/06/25 01:20:56;;;;;;;1.63;1.00;;;;;;;;;;5033986;28;20116;-44
2023/06/25 01:23:23;;;;;;;1.40;0.93;;;;;;;;;;5033932;28;20080;-44
2023/06/25 01:25:51;;;;;;;1.52;1.08;;;;;;;;;;5033940;28;20114;-44
2023/06/25 01:28:21;;;;;;;1.88;0.95;;;;;;;;;;5033961;28;20025;-45
2023/06/25 01:30:51;;;;;;;1.52;1.00;;;;;;;;;;5033780;28;20411;-44
2023/06/25 01:33:26;;;;;;;1.80;0.90;;;;;;;;;;5033735;28;20112;-44
2023/06/25 01:35:55;;;;;;;0.80;0.70;;;;;;;;;;5033689;28;20052;-44
2023/06/25 01:38:22;;;;;;;1.02;0.88;;;;;;;;;;5033769;28;20102;-46
2023/06/25 01:40:49;;;;;;;2.33;0.82;;;;;;;;;;5033570;28;20032;-44
2023/06/25 01:43:16;;;;;;;0.88;0.63;;;;;;;;;;5033122;28;20038;-45
2023/06/25 01:45:43;;;;;;;1.83;0.80;;;;;;;;;;5033376;28;20495;-44
2023/06/25 01:48:11;;;;;;;1.10;0.82;;;;;;;;;;5033587;28;20036;-44
2023/06/25 01:50:38;;;;;;;2.00;0.95;;;;;;;;;;5033615;28;20025;-44
2023/06/25 01:53:05;;;;;;;1.10;0.90;;;;;;;;;;5033545;28;20507;-45
2023/06/25 01:55:32;;;;;;;1.80;0.85;;;;;;;;;;5033373;28;20531;-44
2023/06/25 01:57:59;;;;;;;0.95;0.77;;;;;;;;;;5033387;28;20460;-45
2023/06/25 02:00:26;;;;;;;1.15;0.80;;;;;;;;;;5033227;28;20053;-44
2023/06/25 02:02:53;;;;;;;1.05;0.75;;;;;;;;;;5033395;28;20095;-44
2023/06/25 02:05:23;;;;;;;0.90;0.80;;;;;;;;;;5033143;28;20451;-44
2023/06/25 02:07:51;;;;;;;1.90;1.10;;;;;;;;;;5029804;28;20499;-44
2023/06/25 02:10:18;;;;;;;2.00;0.77;;;;;;;;;;5033177;28;20088;-44
2023/06/25 02:12:45;;;;;;;1.10;0.80;;;;;;;;;;5033154;28;20072;-45
2023/06/25 02:15:12;;;;;;;2.00;1.08;;;;;;;;;;5032938;28;20026;-44
2023/06/25 02:17:39;;;;;;;0.88;0.70;;;;;;;;;;5031658;28;20505;-44
2023/06/25 02:20:07;;;;;;;1.17;0.80;;;;;;;;;;5032862;28;20140;-44
2023/06/25 02:22:34;;;;;;;1.35;0.90;;;;;;;;;;5032937;28;20060;-45
2023/06/25 02:25:01;;;;;;;1.40;0.85;;;;;;;;;;5032790;28;20550;-44
2023/06/25 02:27:28;;;;;;;0.95;0.80;;;;;;;;;;5032836;28;20024;-44
2023/06/25 02:29:55;;;;;;;0.80;0.70;;;;;;;;;;5032839;28;20036;-45
2023/06/25 02:32:22;;;;;;;2.13;1.02;;;;;;;;;;5032866;28;20033;-44
2023/06/25 02:34:49;;;;;;;0.85;0.82;;;;;;;;;;5032593;28;20536;-45
2023/06/25 02:37:16;;;;;;;1.15;0.90;;;;;;;;;;5032651;28;20510;-45
2023/06/25 02:39:44;;;;;;;0.90;0.73;;;;;;;;;;5032524;28;20100;-44
2023/06/25 02:42:11;;;;;;;0.82;0.75;;;;;;;;;;5032502;28;20407;-45
2023/06/25 02:44:38;;;;;;;1.23;1.00;;;;;;;;;;5032141;28;20040;-45
2023/06/25 02:47:06;;;;;;;2.42;0.80;;;;;;;;;;5032680;28;20400;-45
2023/06/25 02:49:33;;;;;;;0.70;0.65;;;;;;;;;;5032420;28;20773;-44
2023/06/25 02:52:00;;;;;;;1.17;0.63;;;;;;;;;;5032391;28;20501;-44
2023/06/25 02:54:27;;;;;;;0.77;0.70;;;;;;;;;;5031285;28;20095;-46
2023/06/25 02:56:56;;;;;;;0.70;0.63;;;;;;;;;;5032343;28;20072;-44
2023/06/25 02:59:23;;;;;;;0.85;0.70;;;;;;;;;;5032287;28;20061;-44
2023/06/25 03:01:50;;;;;;;1.10;0.68;;;;;;;;;;5032138;28;20075;-45
2023/06/25 03:04:17;;;;;;;0.68;0.68;;;;;;;;;;5032199;28;20033;-44
2023/06/25 03:06:44;;;;;;;1.80;0.70;;;;;;;;;;5031978;28;20041;-45
2023/06/25 03:09:11;;;;;;;1.30;0.88;;;;;;;;;;5032103;28;20121;-44
2023/06/25 03:11:38;;;;;;;0.70;0.60;;;;;;;;;;5032070;28;20037;-44
2023/06/25 03:14:05;;;;;;;1.55;0.70;;;;;;;;;;5032057;28;20033;-44
2023/06/25 03:16:32;;;;;;;0.80;0.63;;;;;;;;;;5031890;28;20510;-46
2023/06/25 03:18:59;;;;;;;1.20;0.68;;;;;;;;;;5031934;28;20065;-44
2023/06/25 03:21:26;;;;;;;0.90;0.60;;;;;;;;;;5031877;28;20120;-44
2023/06/25 03:23:53;;;;;;;0.80;0.57;;;;;;;;;;5031971;28;20077;-45
2023/06/25 03:26:20;;;;;;;1.67;0.70;;;;;;;;;;5031832;28;20075;-44
2023/06/25 03:28:48;;;;;;;0.60;0.55;;;;;;;;;;5031824;28;20022;-44
2023/06/25 03:31:15;;;;;;;0.80;0.63;;;;;;;;;;5031782;28;20044;-45
2023/06/25 03:33:42;;;;;;;0.73;0.60;;;;;;;;;;5031767;28;20543;-44
2023/06/25 03:36:09;;;;;;;0.70;0.70;;;;;;;;;;5031689;28;20475;-45
2023/06/25 03:38:36;;;;;;;0.95;0.70;;;;;;;;;;5031765;28;20075;-44
2023/06/25 03:41:03;;;;;;;1.27;0.70;;;;;;;;;;5031670;28;20029;-45
2023/06/25 03:43:30;;;;;;;1.13;0.80;;;;;;;;;;5031624;28;20029;-45
2023/06/25 03:45:57;;;;;;;0.63;0.60;;;;;;;;;;5031371;28;20041;-44
2023/06/25 03:48:24;;;;;;;1.17;0.70;;;;;;;;;;5031633;28;20038;-44
2023/06/25 03:50:51;;;;;;;0.70;0.60;;;;;;;;;;5031579;28;20029;-44
2023/06/25 03:53:18;;;;;;;0.98;0.60;;;;;;;;;;5030202;28;20079;-44
2023/06/25 03:55:45;;;;;;;0.93;0.52;;;;;;;;;;5031455;28;20039;-44
2023/06/25 03:58:12;;;;;;;1.65;0.52;;;;;;;;;;5031455;28;20065;-45
2023/06/25 04:00:40;;;;;;;0.70;0.50;;;;;;;;;;5031506;28;20030;-44
2023/06/25 04:03:07;;;;;;;0.80;0.70;;;;;;;;;;5031539;28;20099;-44
2023/06/25 04:05:34;;;;;;;0.73;0.52;;;;;;;;;;5033423;28;20109;-44
2023/06/25 04:08:01;;;;;;;0.88;0.63;;;;;;;;;;5035442;28;20025;-44
2023/06/25 04:10:28;;;;;;;0.75;0.60;;;;;;;;;;5035468;28;20033;-45
2023/06/25 04:12:55;;;;;;;0.77;0.50;;;;;;;;;;5035453;28;20087;-44
2023/06/25 04:15:22;;;;;;;0.88;0.52;;;;;;;;;;5035261;28;20032;-44
2023/06/25 04:17:49;;;;;;;1.20;0.63;;;;;;;;;;5035318;28;20057;-45
2023/06/25 04:20:16;;;;;;;0.70;0.60;;;;;;;;;;5035215;28;20060;-44
2023/06/25 04:22:43;;;;;;;0.57;0.50;;;;;;;;;;5035237;28;20404;-44
2023/06/25 04:25:10;;;;;;;0.80;0.50;;;;;;;;;;5035101;28;20031;-44
2023/06/25 04:27:37;;;;;;;0.52;0.45;;;;;;;;;;5035140;28;20471;-44
2023/06/25 04:30:04;;;;;;;0.68;0.55;;;;;;;;;;5035118;28;20124;-44
2023/06/25 04:32:32;;;;;;;0.93;0.60;;;;;;;;;;5035014;28;20480;-45
2023/06/25 04:35:00;;;;;;;0.60;0.43;;;;;;;;;;5034729;28;20053;-45
2023/06/25 04:37:27;;;;;;;0.68;0.50;;;;;;;;;;5034942;28;20053;-45
2023/06/25 04:39:54;;;;;;;0.60;0.50;;;;;;;;;;5034861;28;20438;-44
2023/06/25 04:42:21;;;;;;;1.02;0.50;;;;;;;;;;5034917;28;20060;-44
2023/06/25 04:44:48;;;;;;;0.70;0.60;;;;;;;;;;5034381;28;20040;-44
2023/06/25 04:47:15;;;;;;;0.57;0.50;;;;;;;;;;5034762;28;20127;-44
2023/06/25 04:49:42;;;;;;;0.98;0.50;;;;;;;;;;5034704;28;20026;-44
2023/06/25 04:52:17;;;;;;;0.60;0.50;;;;;;;;;;5034702;28;20021;-45
2023/06/25 04:54:44;;;;;;;0.80;0.60;;;;;;;;;;5034744;28;20036;-44
2023/06/25 04:57:11;;;;;;;0.82;0.52;;;;;;;;;;5034571;28;20673;-44
2023/06/25 04:59:37;;;;;;;0.60;0.50;;;;;;;;;;5034586;28;20029;-45
2023/06/25 05:02:06;;;;;;;0.40;0.40;;;;;;;;;;5034470;28;20041;-45
2023/06/25 05:04:33;;;;;;;0.85;0.50;;;;;;;;;;5034401;28;20114;-44
2023/06/25 05:07:00;;;;;;;0.75;0.60;;;;;;;;;;5034435;28;20113;-44
2023/06/25 05:09:27;;;;;;;2.10;0.40;;;;;;;;;;5034407;28;20375;-45
2023/06/25 05:11:54;;;;;;;0.73;0.40;;;;;;;;;;5034358;28;20033;-44
2023/06/25 05:14:21;;;;;;;0.85;0.50;;;;;;;;;;5034308;28;20049;-44
2023/06/25 05:16:48;;;;;;;0.30;0.30;;;;;;;;;;5033327;28;20029;-44
2023/06/25 05:19:15;;;;;;;0.73;0.50;;;;;;;;;;5034318;28;20048;-44
2023/06/25 05:21:42;;;;;;;0.82;0.43;;;;;;;;;;5034133;28;20495;-44
2023/06/25 05:24:09;;;;;;;0.88;0.55;;;;;;;;;;5034039;28;20037;-46
2023/06/25 05:26:36;;;;;;;0.45;0.35;;;;;;;;;;5033959;28;20116;-44
2023/06/25 05:29:04;;;;;;;0.65;0.40;;;;;;;;;;5032716;28;20406;-45
2023/06/25 05:31:31;;;;;;;0.55;0.40;;;;;;;;;;5034000;28;20036;-45
2023/06/25 05:33:58;;;;;;;1.25;0.50;;;;;;;;;;5033958;28;20483;-45
2023/06/25 05:36:25;;;;;;;0.77;0.57;;;;;;;;;;5033752;28;20029;-44
2023/06/25 05:38:52;;;;;;;0.90;0.50;;;;;;;;;;5033830;28;20034;-44
2023/06/25 05:41:19;;;;;;;1.08;0.50;;;;;;;;;;5033699;28;20048;-44
2023/06/25 05:43:46;;;;;;;0.77;0.52;;;;;;;;;;5033621;28;20041;-45
2023/06/25 05:46:13;;;;;;;0.50;0.40;;;;;;;;;;5032682;28;20049;-44
2023/06/25 05:48:41;;;;;;;0.63;0.50;;;;;;;;;;5026148;28;20040;-44
2023/06/25 05:51:08;;;;;;;1.85;0.40;;;;;;;;;;5033405;28;20068;-44
2023/06/25 05:53:39;;;;;;;3.40;0.52;;;;;;;;;;5027275;28;20048;-44
2023/06/25 05:56:07;;;;;;;5.57;0.70;;;;;;;;;;5026322;28;20423;-45
2023/06/25 05:58:37;;;;;;;4.65;0.70;;;;;;;;;;5026884;28;20041;-44
2023/06/25 06:01:04;;;;;;;6.80;0.70;;;;;;;;;;5029567;28;20117;-44
2023/06/25 06:03:31;;;;;;;4.35;0.70;;;;;;;;;;5052969;28;20041;-44
2023/06/25 06:05:59;;;;;;;3.00;0.65;;;;;;;;;;5052815;28;20048;-44
2023/06/25 06:08:26;;;;;;;2.05;0.40;;;;;;;;;;5052843;28;20048;-45
2023/06/25 06:10:54;;;;;;;4.03;0.60;;;;;;;;;;5053078;28;20155;-44
2023/06/25 06:13:21;;;;;;;4.13;0.40;;;;;;;;;;5052891;28;20069;-44
2023/06/25 06:15:48;;;;;;;2.08;0.50;;;;;;;;;;5052706;28;20033;-44
2023/06/25 06:18:15;;;;;;;2.90;0.60;;;;;;;;;;5052988;28;20071;-45
2023/06/25 06:20:42;;;;;;;1.30;0.47;;;;;;;;;;5052856;28;20368;-44
2023/06/25 06:23:09;;;;;;;4.70;0.52;;;;;;;;;;5034889;28;20166;-44
2023/06/25 06:25:36;;;;;;;2.47;0.70;;;;;;;;;;5037645;28;20022;-44
2023/06/25 06:28:03;;;;;;;2.85;0.55;;;;;;;;;;5032749;28;20136;-44
2023/06/25 06:30:30;;;;;;;3.13;0.50;;;;;;;;;;5032387;28;20109;-44
2023/06/25 06:32:57;;;;;;;2.88;0.52;;;;;;;;;;5032830;28;20503;-44
2023/06/25 06:35:24;;;;;;;0.93;0.40;;;;;;;;;;5032491;28;20086;-44
2023/06/25 06:37:51;;;;;;;1.85;0.40;;;;;;;;;;5032579;28;20057;-44
2023/06/25 06:40:18;;;;;;;0.90;0.30;;;;;;;;;;5032507;28;20033;-44
2023/06/25 06:42:45;;;;;;;4.25;0.52;;;;;;;;;;5032434;28;20029;-44
2023/06/25 06:45:12;;;;;;;1.20;0.40;;;;;;;;;;5032270;28;20041;-46
2023/06/25 06:47:39;;;;;;;2.03;0.60;;;;;;;;;;5032333;28;20053;-44
2023/06/25 06:50:08;;;;;;;0.60;0.32;;;;;;;;;;5032481;28;20109;-44
2023/06/25 06:52:35;;;;;;;2.13;0.40;;;;;;;;;;5032441;28;20483;-44
2023/06/25 06:55:02;;;;;;;1.42;0.50;;;;;;;;;;5032309;28;20487;-44
2023/06/25 06:57:29;;;;;;;1.25;0.50;;;;;;;;;;5032224;28;20049;-44
2023/06/25 06:59:56;;;;;;;0.95;0.40;;;;;;;;;;5032169;28;20029;-45
2023/06/25 07:02:23;;;;;;;2.85;0.50;;;;;;;;;;5014504;28;20045;-44
2023/06/25 07:04:51;;;;;;;1.67;0.60;;;;;;;;;;5032008;28;20036;-45
2023/06/25 07:07:18;;;;;;;1.52;0.50;;;;;;;;;;5032026;28;20103;-45
2023/06/25 07:09:53;;;;;;;0.63;0.30;;;;;;;;;;5031864;28;20499;-44
2023/06/25 07:12:21;;;;;;;1.23;0.50;;;;;;;;;;5032207;28;20041;-45
2023/06/25 07:14:48;;;;;;;1.02;0.40;;;;;;;;;;5014129;28;20029;-44
2023/06/25 07:17:15;;;;;;;1.77;0.52;;;;;;;;;;5032009;28;20030;-44
2023/06/25 07:19:42;;;;;;;0.82;0.40;;;;;;;;;;5031764;28;20087;-44
2023/06/25 07:22:09;;;;;;;2.40;0.60;;;;;;;;;;5031860;28;20479;-44
2023/06/25 07:24:36;;;;;;;1.13;0.60;;;;;;;;;;5031829;28;20112;-44
2023/06/25 07:27:03;;;;;;;0.88;0.40;;;;;;;;;;5031709;28;20487;-43
2023/06/25 07:29:30;;;;;;;2.65;0.50;;;;;;;;;;5031831;28;20052;-44
2023/06/25 07:31:57;;;;;;;1.48;0.50;;;;;;;;;;5031835;28;20368;-43
2023/06/25 07:34:24;;;;;;;1.50;0.50;;;;;;;;;;5031603;28;20368;-44
2023/06/25 07:36:51;;;;;;;1.35;0.52;;;;;;;;;;5031671;28;20030;-44
2023/06/25 07:39:29;;;;;;;1.05;0.57;;;;;;;;;;5031253;28;20144;-44
2023/06/25 07:41:59;;;;;;;1.08;0.47;;;;;;;;;;5031436;28;20041;-44
2023/06/25 07:44:26;;;;;;;1.40;0.50;;;;;;;;;;5013639;28;20039;-45
2023/06/25 07:46:53;;;;;;;1.27;0.40;;;;;;;;;;5031472;28;20042;-44
2023/06/25 07:49:20;;;;;;;1.98;0.60;;;;;;;;;;5031515;28;20072;-44
2023/06/25 07:51:50;;;;;;;1.65;0.65;;;;;;;;;;5031609;28;20095;-44
2023/06/25 07:54:18;;;;;;;2.70;0.50;;;;;;;;;;5031391;28;20037;-43
2023/06/25 07:56:45;;;;;;;1.05;0.50;;;;;;;;;;5031535;28;20041;-44
2023/06/25 07:59:15;;;;;;;0.93;0.60;;;;;;;;;;5031486;28;20059;-44
2023/06/25 08:01:42;;;;;;;1.17;0.50;;;;;;;;;;5031400;28;20025;-44
2023/06/25 08:04:09;;;;;;;1.67;0.55;;;;;;;;;;5031456;28;20049;-46
2023/06/25 08:06:36;;;;;;;1.35;0.60;;;;;;;;;;5031426;28;20072;-44
2023/06/25 08:09:04;;;;;;;1.02;0.57;;;;;;;;;;5031435;28;20025;-44
2023/06/25 08:11:31;;;;;;;3.70;0.40;;;;;;;;;;5031315;28;20092;-44
2023/06/25 08:13:58;;;;;;;0.47;0.40;;;;;;;;;;5030997;28;20112;-44
2023/06/25 08:16:25;;;;;;;1.73;0.63;;;;;;;;;;5031352;28;20037;-44
2023/06/25 08:18:52;;;;;;;1.00;0.50;;;;;;;;;;5031268;28;20036;-44
2023/06/25 08:21:19;;;;;;;1.15;0.60;;;;;;;;;;5031277;28;20104;-44
2023/06/25 08:23:46;;;;;;;0.95;0.50;;;;;;;;;;5031231;28;20053;-45
2023/06/25 08:26:15;;;;;;;0.80;0.50;;;;;;;;;;5031258;28;20028;-44
2023/06/25 08:28:43;;;;;;;0.77;0.50;;;;;;;;;;5031178;28;20038;-44
2023/06/25 08:31:10;;;;;;;1.50;0.60;;;;;;;;;;5031186;28;20021;-44
2023/06/25 08:33:38;;;;;;;0.50;0.40;;;;;;;;;;5031218;28;20436;-44
2023/06/25 08:36:05;;;;;;;1.13;0.43;;;;;;;;;;5031073;28;20033;-44
2023/06/25 08:38:32;;;;;;;0.60;0.50;;;;;;;;;;5031161;28;20025;-44
2023/06/25 08:40:59;;;;;;;0.77;0.50;;;;;;;;;;5030922;28;20034;-44
2023/06/25 08:43:27;;;;;;;0.93;0.60;;;;;;;;;;5031048;28;20033;-44
2023/06/25 08:45:54;;;;;;;1.30;0.63;;;;;;;;;;5030787;28;20041;-44
2023/06/25 08:48:23;;;;;;;1.52;0.80;;;;;;;;;;5031171;28;20025;-44
2023/06/25 08:50:56;;;;;;;1.75;0.70;;;;;;;;;;5031110;28;20033;-45
2023/06/25 08:53:22;;;;;;;;;;;;;;;;;;5034343;28;20100;-43
2023/06/25 08:55:50;;;;;;;0.80;0.45;;;;;;;;;;5034541;28;19913;-44
2023/06/25 08:58:17;;;;;;;0.50;0.40;;;;;;;;;;5034483;28;20099;-44
2023/06/25 09:00:44;;;;;;;0.80;0.57;;;;;;;;;;5034411;28;20022;-44
2023/06/25 09:03:11;;;;;;;1.48;0.70;;;;;;;;;;5034409;28;20030;-45
2023/06/25 09:05:38;;;;;;;0.88;0.60;;;;;;;;;;5034317;28;20021;-44
2023/06/25 09:08:05;;;;;;;1.67;0.68;;;;;;;;;;5034231;28;20026;-44
2023/06/25 09:10:32;;;;;;;0.93;0.52;;;;;;;;;;5034285;28;20059;-44
2023/06/25 09:13:02;;;;;;;0.95;0.60;;;;;;;;;;5034074;28;20112;-45
2023/06/25 09:15:29;;;;;;;0.80;0.47;;;;;;;;;;5033876;28;20025;-44
2023/06/25 09:17:57;;;;;;;1.45;0.60;;;;;;;;;;5029936;28;20037;-45
2023/06/25 09:20:24;;;;;;;1.58;0.60;;;;;;;;;;5014152;28;20030;-44
2023/06/25 09:22:55;;;;;;;1.35;0.50;;;;;;;;;;5014369;28;20141;-44
2023/06/25 09:25:28;;;;;;;1.15;0.50;;;;;;;;;;5014240;28;20030;-44
2023/06/25 09:27:55;;;;;;;1.00;0.52;;;;;;;;;;5014139;28;20041;-44
2023/06/25 09:30:25;;;;;;;0.90;0.50;;;;;;;;;;5014204;28;20037;-44
2023/06/25 09:32:53;;;;;;;1.52;0.50;;;;;;;;;;5014199;28;20088;-44
2023/06/25 09:35:21;;;;;;;0.40;0.40;;;;;;;;;;5014111;28;20060;-44
2023/06/25 09:37:48;;;;;;;0.90;0.50;;;;;;;;;;5013919;28;20033;-44
2023/06/25 09:40:15;;;;;;;0.63;0.50;;;;;;;;;;5013770;28;20029;-44
2023/06/25 09:42:46;;;;;;;1.15;0.63;;;;;;;;;;5013825;28;20495;-45
2023/06/25 09:45:17;;;;;;;1.75;0.60;;;;;;;;;;5013628;28;20045;-44
2023/06/25 09:47:46;;;;;;;0.60;0.40;;;;;;;;;;5013720;28;20045;-45
2023/06/25 09:50:15;;;;;;;1.40;0.65;;;;;;;;;;5013805;28;20129;-46
2023/06/25 09:52:44;;;;;;;1.17;0.63;;;;;;;;;;5013699;28;20034;-44
2023/06/25 09:55:11;;;;;;;0.60;0.47;;;;;;;;;;5013448;28;20500;-44
2023/06/25 09:57:38;;;;;;;1.08;0.68;;;;;;;;;;5013543;28;20415;-44
2023/06/25 10:00:06;;;;;;;1.48;0.50;;;;;;;;;;5013553;28;20083;-43
2023/06/25 10:02:33;;;;;;;1.00;0.60;;;;;;;;;;5013251;28;20068;-44
2023/06/25 10:05:00;;;;;;;0.65;0.40;;;;;;;;;;4995637;28;20500;-44
2023/06/25 10:07:27;;;;;;;0.63;0.52;;;;;;;;;;5013459;28;20025;-46
2023/06/25 10:09:57;;;;;;;0.77;0.50;;;;;;;;;;5013772;28;20402;-44
2023/06/25 10:12:25;;;;;;;1.15;0.70;;;;;;;;;;5013376;28;20044;-44
2023/06/25 10:14:54;;;;;;;0.82;0.50;;;;;;;;;;5013226;28;20030;-44
2023/06/25 10:17:21;;;;;;;0.70;0.50;;;;;;;;;;5012942;28;20439;-44
2023/06/25 10:19:56;;;;;;;1.05;0.50;;;;;;;;;;5013224;28;20066;-46
2023/06/25 10:22:24;;;;;;;0.60;0.50;;;;;;;;;;5013116;28;20046;-44
2023/06/25 10:24:52;;;;;;;0.52;0.40;;;;;;;;;;5013103;28;20030;-44
2023/06/25 10:27:29;;;;;;;1.00;0.50;;;;;;;;;;5012798;28;20041;-44
2023/06/25 10:29:59;;;;;;;0.88;0.50;;;;;;;;;;5012906;28;20050;-44
2023/06/25 10:32:30;;;;;;;1.15;0.60;;;;;;;;;;5013016;28;20156;-44
2023/06/25 10:35:04;;;;;;;2.45;0.70;;;;;;;;;;5012865;28;20045;-44
2023/06/25 10:37:32;;;;;;;0.80;0.60;;;;;;;;;;5012914;28;20030;-44
2023/06/25 10:40:09;;;;;;;0.88;0.57;;;;;;;;;;5012798;28;20029;-45
2023/06/25 10:42:36;;;;;;;0.90;0.57;;;;;;;;;;5012859;28;20037;-44
2023/06/25 10:45:04;;;;;;;1.20;0.68;;;;;;;;;;5012561;28;20415;-44
2023/06/25 10:47:31;;;;;;;0.52;0.40;;;;;;;;;;5012794;28;20034;-44
2023/06/25 10:49:58;;;;;;;1.60;0.60;;;;;;;;;;5012482;28;20029;-44
2023/06/25 10:52:25;;;;;;;0.70;0.40;;;;;;;;;;5012718;28;20049;-44
2023/06/25 10:54:55;;;;;;;0.65;0.50;;;;;;;;;;5012502;28;20022;-44
2023/06/25 10:57:22;;;;;;;0.90;0.40;;;;;;;;;;5012553;28;20488;-44
2023/06/25 10:59:50;;;;;;;0.90;0.55;;;;;;;;;;5012641;28;20477;-44
2023/06/25 11:02:20;;;;;;;0.60;0.40;;;;;;;;;;5012283;28;20064;-44
2023/06/25 11:04:51;;;;;;;0.73;0.40;;;;;;;;;;5012397;28;20108;-44
2023/06/25 11:07:19;;;;;;;0.90;0.63;;;;;;;;;;4994767;28;20034;-44
2023/06/25 11:09:50;;;;;;;1.50;0.60;;;;;;;;;;5012348;28;20088;-44
2023/06/25 11:12:18;;;;;;;2.35;0.60;;;;;;;;;;5012258;28;20034;-44
2023/06/25 11:14:45;;;;;;;1.15;0.35;;;;;;;;;;5011503;28;20041;-45
2023/06/25 11:17:15;;;;;;;0.68;0.40;;;;;;;;;;5012307;28;20030;-44
2023/06/25 11:19:42;;;;;;;0.70;0.47;;;;;;;;;;5012242;28;20488;-44
2023/06/25 11:22:09;;;;;;;0.57;0.38;;;;;;;;;;5012120;28;20076;-44
2023/06/25 11:24:40;;;;;;;0.40;0.30;;;;;;;;;;5012033;28;20504;-44
2023/06/25 11:27:07;;;;;;;0.40;0.30;;;;;;;;;;5012067;28;20538;-44
2023/06/25 11:29:37;;;;;;;0.60;0.50;;;;;;;;;;5012110;28;20057;-44
2023/06/25 11:32:08;;;;;;;1.48;0.50;;;;;;;;;;5012079;28;20108;-44
2023/06/25 11:34:36;;;;;;;0.60;0.50;;;;;;;;;;5011789;28;20030;-45
2023/06/25 11:37:10;;;;;;;0.80;0.50;;;;;;;;;;5012043;28;20273;-44
2023/06/25 11:39:52;;;;;;;1.20;0.47;;;;;;;;;;5012024;28;20060;-43
2023/06/25 11:42:23;;;;;;;0.82;0.40;;;;;;;;;;5011929;28;20080;-44
2023/06/25 11:45:03;;;;;;;0.90;0.50;;;;;;;;;;5011668;28;20025;-44
2023/06/25 11:47:31;;;;;;;0.68;0.40;;;;;;;;;;5011740;28;20038;-45
2023/06/25 11:49:58;;;;;;;0.80;0.40;;;;;;;;;;5011854;28;20110;-44
2023/06/25 11:52:26;;;;;;;0.47;0.40;;;;;;;;;;5011921;28;20034;-44
2023/06/25 11:54:53;;;;;;;0.75;0.50;;;;;;;;;;5011717;28;20088;-44
2023/06/25 11:57:20;;;;;;;0.80;0.60;;;;;;;;;;5011860;28;20022;-44
2023/06/25 11:59:47;;;;;;;0.50;0.38;;;;;;;;;;5011666;28;20026;-44
2023/06/25 12:02:14;;;;;;;1.05;0.50;;;;;;;;;;5011659;28;20538;-44
2023/06/25 12:04:41;;;;;;;0.45;0.30;;;;;;;;;;5011646;28;20073;-44
2023/06/25 12:07:08;;;;;;;0.85;0.40;;;;;;;;;;5011751;28;20488;-44
2023/06/25 12:09:35;;;;;;;0.50;0.30;;;;;;;;;;5011757;28;20026;-44
2023/06/25 12:12:02;;;;;;;0.93;0.40;;;;;;;;;;5011539;28;20034;-44
2023/06/25 12:14:29;;;;;;;0.65;0.50;;;;;;;;;;5011562;28;20161;-44
2023/06/25 12:16:56;;;;;;;0.82;0.38;;;;;;;;;;5011578;28;20049;-45
2023/06/25 12:19:23;;;;;;;0.80;0.40;;;;;;;;;;5011677;28;20038;-44
2023/06/25 12:21:50;;;;;;;0.90;0.50;;;;;;;;;;5011630;28;20034;-44
2023/06/25 12:24:17;;;;;;;0.40;0.40;;;;;;;;;;5011348;28;20038;-45
2023/06/25 12:26:44;;;;;;;0.50;0.40;;;;;;;;;;5013638;28;20031;-44
2023/06/25 12:29:11;;;;;;;0.25;0.25;;;;;;;;;;5015341;28;20026;-44
2023/06/25 12:31:38;;;;;;;0.40;0.40;;;;;;;;;;5015263;28;20113;-44
2023/06/25 12:34:05;;;;;;;1.08;0.50;;;;;;;;;;5015233;28;20018;-44
2023/06/25 12:36:32;;;;;;;1.33;0.40;;;;;;;;;;5015220;28;20057;-45
2023/06/25 12:39:00;;;;;;;1.20;0.40;;;;;;;;;;5015080;28;20025;-44
2023/06/25 12:41:27;;;;;;;0.80;0.40;;;;;;;;;;5015056;28;20117;-44
2023/06/25 12:43:54;;;;;;;0.28;0.20;;;;;;;;;;5014997;28;20041;-44
2023/06/25 12:46:21;;;;;;;0.30;0.30;;;;;;;;;;5014693;28;20061;-44
2023/06/25 12:48:49;;;;;;;0.30;0.30;;;;;;;;;;5014928;28;20030;-44
2023/06/25 12:51:16;;;;;;;0.60;0.38;;;;;;;;;;5014912;28;20044;-43
2023/06/25 12:53:43;;;;;;;0.47;0.40;;;;;;;;;;5014804;28;20480;-44
2023/06/25 12:56:10;;;;;;;0.85;0.60;;;;;;;;;;5014731;28;20022;-44
2023/06/25 12:58:37;;;;;;;0.35;0.30;;;;;;;;;;5014848;28;20102;-45
2023/06/25 13:01:04;;;;;;;1.30;0.50;;;;;;;;;;5014619;28;20018;-45
2023/06/25 13:03:31;;;;;;;0.52;0.30;;;;;;;;;;5014508;28;20032;-45
2023/06/25 13:05:58;;;;;;;0.35;0.30;;;;;;;;;;5014671;28;20076;-45
2023/06/25 13:08:26;;;;;;;0.70;0.30;;;;;;;;;;5014706;28;20028;-44
2023/06/25 13:10:54;;;;;;;0.40;0.30;;;;;;;;;;5014464;28;20049;-45
2023/06/25 13:13:21;;;;;;;0.40;0.30;;;;;;;;;;5014329;28;20084;-44
2023/06/25 13:15:48;;;;;;;0.50;0.30;;;;;;;;;;5014402;28;20097;-45
2023/06/25 13:18:15;;;;;;;0.30;0.30;;;;;;;;;;5014378;28;20053;-44
2023/06/25 13:20:42;;;;;;;0.50;0.40;;;;;;;;;;5016287;28;20108;-44
2023/06/25 13:23:09;;;;;;;0.63;0.40;;;;;;;;;;5033214;28;20025;-44
2023/06/25 13:25:37;;;;;;;1.88;0.30;;;;;;;;;;5033363;28;20021;-44
2023/06/25 13:28:05;;;;;;;0.90;0.30;;;;;;;;;;5033356;28;20116;-46
2023/06/25 13:30:33;;;;;;;0.20;0.20;;;;;;;;;;5030183;28;20161;-44
2023/06/25 13:33:01;;;;;;;0.52;0.35;;;;;;;;;;5033215;28;20037;-44
2023/06/25 13:35:28;;;;;;;1.00;0.30;;;;;;;;;;5032956;28;20053;-45
2023/06/25 13:37:55;;;;;;;0.30;0.30;;;;;;;;;;5032080;28;20027;-44
2023/06/25 13:40:22;;;;;;;0.40;0.30;;;;;;;;;;5032467;28;20108;-44
2023/06/25 13:42:49;;;;;;;0.40;0.30;;;;;;;;;;5033497;28;20041;-44
2023/06/25 13:45:16;;;;;;;0.82;0.45;;;;;;;;;;5033053;28;20053;-43
2023/06/25 13:47:43;;;;;;;0.63;0.38;;;;;;;;;;5019469;28;20034;-44
2023/06/25 13:50:10;;;;;;;0.57;0.40;;;;;;;;;;5018837;28;20515;-44
2023/06/25 13:52:37;;;;;;;0.43;0.20;;;;;;;;;;5033281;28;20052;-44
2023/06/25 13:55:04;;;;;;;0.95;0.30;;;;;;;;;;5033024;28;20026;-45
2023/06/25 13:57:31;;;;;;;0.70;0.40;;;;;;;;;;5026446;28;20088;-44
2023/06/25 13:59:58;;;;;;;1.35;0.50;;;;;;;;;;5032113;28;20033;-44
2023/06/25 14:02:25;;;;;;;1.02;0.43;;;;;;;;;;5031498;28;20029;-44
2023/06/25 14:04:53;;;;;;;0.70;0.30;;;;;;;;;;5031966;28;20033;-44
2023/06/25 14:07:20;;;;;;;0.57;0.50;;;;;;;;;;5029961;28;20033;-44
2023/06/25 14:09:47;;;;;;;0.65;0.40;;;;;;;;;;5031943;28;20040;-44
2023/06/25 14:12:14;;;;;;;0.68;0.30;;;;;;;;;;5032584;28;20029;-44
2023/06/25 14:14:41;;;;;;;1.30;0.25;;;;;;;;;;5032233;28;20026;-43
2023/06/25 14:17:09;;;;;;;0.43;0.30;;;;;;;;;;5015114;28;20029;-45
2023/06/25 14:19:36;;;;;;;0.70;0.40;;;;;;;;;;5029662;28;20043;-43
2023/06/25 14:22:03;;;;;;;0.55;0.30;;;;;;;;;;5025983;28;20044;-45
2023/06/25 14:24:30;;;;;;;1.27;0.32;;;;;;;;;;5021814;28;20101;-44
2023/06/25 14:26:57;;;;;;;0.98;0.40;;;;;;;;;;5021328;28;20033;-44
2023/06/25 14:29:24;;;;;;;2.38;0.47;;;;;;;;;;5023289;28;20018;-44
2023/06/25 14:31:51;;;;;;;3.13;0.50;;;;;;;;;;5022267;28;20030;-44
2023/06/25 14:34:18;;;;;;;1.05;0.40;;;;;;;;;;5020972;28;20033;-44
2023/06/25 14:36:45;;;;;;;3.42;0.38;;;;;;;;;;5023239;28;20040;-43
2023/06/25 14:39:12;;;;;;;0.70;0.40;;;;;;;;;;5022200;28;20026;-43
2023/06/25 14:41:39;;;;;;;1.02;0.50;;;;;;;;;;5026118;28;20065;-44
2023/06/25 14:44:06;;;;;;;2.08;0.40;;;;;;;;;;5030793;28;20083;-44
2023/06/25 14:46:33;;;;;;;0.55;0.35;;;;;;;;;;5030773;28;20056;-44